createdAt,value
2018-07-28T00:01:24.127Z,68.50
2018-07-28T00:03:52.821Z,68.30
2018-07-28T00:06:21.372Z,67.50
2018-07-28T00:08:49.933Z,67.10
2018-07-28T00:11:18.559Z,65.70
2018-07-28T00:13:47.125Z,65.20
2018-07-28T00:16:15.603Z,64.80
2018-07-28T00:18:44.135Z,64.80
2018-07-28T00:21:12.669Z,64.80
2018-07-28T00:26:14.843Z,64.80
2018-07-28T00:31:11.525Z,68.40
2018-07-28T00:33:40.044Z,68.00
2018-07-28T00:36:08.630Z,67.00
2018-07-28T00:38:37.143Z,67.00
2018-07-28T00:41:05.756Z,65.70
2018-07-28T00:43:34.297Z,65.50
2018-07-28T00:46:02.872Z,65.70
2018-07-28T00:48:31.449Z,65.60
2018-07-28T00:50:59.996Z,64.10
2018-07-28T00:53:28.538Z,64.20
2018-07-28T00:55:57.086Z,66.00
2018-07-28T00:58:25.618Z,65.90
2018-07-28T01:00:54.122Z,65.70
2018-07-28T01:03:22.742Z,64.70
2018-07-28T01:05:51.231Z,64.20
2018-07-28T01:10:47.991Z,63.60
2018-07-28T01:13:16.493Z,65.90
2018-07-28T01:18:13.191Z,66.50
2018-07-28T01:20:41.728Z,66.30
2018-07-28T01:23:10.263Z,66.80
2018-07-28T01:25:38.768Z,68.00
2018-07-28T01:28:07.312Z,67.60
2018-07-28T01:30:35.849Z,67.90
2018-07-28T01:33:04.494Z,67.60
2018-07-28T01:35:32.993Z,69.30
2018-07-28T01:38:01.539Z,70.00
2018-07-28T01:40:30.117Z,70.10
2018-07-28T01:42:58.697Z,70.70
2018-07-28T01:45:27.207Z,70.10
2018-07-28T01:47:55.745Z,70.40
2018-07-28T01:50:24.264Z,70.00
2018-07-28T01:52:52.801Z,69.30
2018-07-28T01:55:21.352Z,69.00
2018-07-28T01:57:49.862Z,69.30
2018-07-28T02:00:18.382Z,68.50
2018-07-28T02:02:46.902Z,68.50
2018-07-28T02:05:15.432Z,69.10
2018-07-28T02:07:43.948Z,69.20
2018-07-28T02:10:12.546Z,69.30
2018-07-28T02:12:41.052Z,68.80
2018-07-28T02:15:09.628Z,69.00
2018-07-28T02:17:38.168Z,70.40
2018-07-28T02:20:07.450Z,71.40
2018-07-28T02:22:36.094Z,71.40
2018-07-28T02:25:06.397Z,70.30
2018-07-28T02:27:35.061Z,70.20
2018-07-28T02:30:03.736Z,71.40
2018-07-28T02:32:32.243Z,71.30
2018-07-28T02:35:00.793Z,71.50
2018-07-28T02:37:29.344Z,71.60
2018-07-28T02:39:57.827Z,71.60
2018-07-28T02:42:26.354Z,71.30
2018-07-28T02:44:54.909Z,70.70
2018-07-28T02:47:23.417Z,70.20
2018-07-28T02:49:51.929Z,70.60
2018-07-28T02:52:20.489Z,70.80
2018-07-28T02:54:49.084Z,70.30
2018-07-28T02:57:17.615Z,68.20
2018-07-28T02:59:46.139Z,69.50
2018-07-28T03:02:14.718Z,69.70
2018-07-28T03:04:43.326Z,68.80
2018-07-28T03:07:11.836Z,69.30
2018-07-28T03:09:40.357Z,72.10
2018-07-28T03:12:08.859Z,72.00
2018-07-28T03:14:37.385Z,70.80
2018-07-28T03:17:06.190Z,71.20
2018-07-28T03:19:34.746Z,71.30
2018-07-28T03:22:03.287Z,71.60
2018-07-28T03:24:31.820Z,71.90
2018-07-28T03:27:00.354Z,72.90
2018-07-28T03:29:28.860Z,73.10
2018-07-28T03:31:57.396Z,74.00
2018-07-28T03:34:25.910Z,72.10
2018-07-28T03:36:54.458Z,71.40
2018-07-28T03:39:22.994Z,71.80
2018-07-28T03:41:51.522Z,72.60
2018-07-28T03:44:20.096Z,72.10
2018-07-28T03:46:48.610Z,71.50
2018-07-28T03:49:17.163Z,72.70
2018-07-28T03:51:45.693Z,75.20
2018-07-28T03:54:14.197Z,72.50
2018-07-28T03:56:42.695Z,73.20
2018-07-28T03:59:11.223Z,72.90
2018-07-28T04:01:39.749Z,74.60
2018-07-28T04:06:36.548Z,73.00
2018-07-28T04:09:07.670Z,73.10
2018-07-28T04:11:36.203Z,73.40
2018-07-28T04:14:04.832Z,74.10
2018-07-28T04:16:33.351Z,72.40
2018-07-28T04:19:01.869Z,72.80
2018-07-28T04:21:30.397Z,73.50
2018-07-28T04:23:58.921Z,73.10
2018-07-28T04:26:27.450Z,74.80
2018-07-28T04:28:55.965Z,72.40
2018-07-28T04:31:24.530Z,71.20
2018-07-28T04:33:53.025Z,70.90
2018-07-28T04:36:21.577Z,71.10
2018-07-28T04:38:50.319Z,74.00
2018-07-28T04:41:18.843Z,73.40
2018-07-28T04:43:47.385Z,71.20
2018-07-28T04:46:15.900Z,71.60
2018-07-28T04:48:44.421Z,72.50
2018-07-28T04:51:13.011Z,75.20
2018-07-28T04:53:41.512Z,75.60
2018-07-28T04:56:10.067Z,75.40
2018-07-28T04:58:38.599Z,77.70
2018-07-28T05:03:35.308Z,79.40
2018-07-28T05:06:03.915Z,81.40
2018-07-28T05:08:32.511Z,81.10
2018-07-28T05:11:01.081Z,81.70
2018-07-28T05:13:29.663Z,82.20
2018-07-28T05:15:58.238Z,84.10
2018-07-28T05:18:26.742Z,84.30
2018-07-28T05:20:55.336Z,83.70
2018-07-28T05:23:23.908Z,81.90
2018-07-28T05:25:52.428Z,84.90
2018-07-28T05:28:20.966Z,85.70
2018-07-28T05:30:49.498Z,85.60
2018-07-28T05:33:18.020Z,85.40
2018-07-28T05:35:46.548Z,84.90
2018-07-28T05:38:15.101Z,84.90
2018-07-28T05:40:43.603Z,83.50
2018-07-28T05:43:12.200Z,82.90
2018-07-28T05:45:40.754Z,87.70
2018-07-28T05:50:37.492Z,84.90
2018-07-28T05:53:06.579Z,87.70
2018-07-28T05:55:35.153Z,84.00
2018-07-28T05:58:03.881Z,85.10
2018-07-28T06:00:33.148Z,85.50
2018-07-28T06:03:05.122Z,83.00
2018-07-28T06:05:34.577Z,82.70
2018-07-28T06:08:03.210Z,81.40
2018-07-28T06:10:31.766Z,78.40
2018-07-28T06:13:00.305Z,79.00
2018-07-28T06:15:28.899Z,78.30
2018-07-28T06:17:57.415Z,80.90
2018-07-28T06:20:26.126Z,85.40
2018-07-28T06:22:54.621Z,80.40
2018-07-28T06:25:23.159Z,81.10
2018-07-28T06:27:51.705Z,81.20
2018-07-28T06:30:20.222Z,79.00
2018-07-28T06:32:48.779Z,83.50
2018-07-28T06:35:17.353Z,84.10
2018-07-28T06:37:45.885Z,85.60
2018-07-28T06:40:14.440Z,83.10
2018-07-28T06:42:43.020Z,84.00
2018-07-28T06:45:11.676Z,88.20
2018-07-28T06:50:08.466Z,87.80
2018-07-28T06:52:36.995Z,82.80
2018-07-28T06:55:06.126Z,83.90
2018-07-28T06:57:34.646Z,87.00
2018-07-28T07:00:03.369Z,87.80
2018-07-28T07:02:31.889Z,89.20
2018-07-28T07:07:29.192Z,91.30
2018-07-28T07:09:57.746Z,92.30
2018-07-28T07:12:26.376Z,92.60
2018-07-28T07:14:54.871Z,93.40
2018-07-28T07:17:23.398Z,94.80
2018-07-28T07:19:51.921Z,93.70
2018-07-28T07:22:20.503Z,95.90
2018-07-28T07:24:49.055Z,95.10
2018-07-28T07:27:17.570Z,97.90
2018-07-28T07:29:46.186Z,98.80
2018-07-28T07:32:14.740Z,99.90
2018-07-28T07:34:43.256Z,99.90
2018-07-28T07:37:12.397Z,99.90
2018-07-28T07:39:40.903Z,99.90
2018-07-28T07:42:09.434Z,99.90
2018-07-28T07:44:38.027Z,99.90
2018-07-28T07:47:06.754Z,99.90
2018-07-28T07:49:35.274Z,99.90
2018-07-28T07:52:04.010Z,99.90
2018-07-28T07:54:32.506Z,99.90
2018-07-28T07:57:01.001Z,99.90
2018-07-28T07:59:29.521Z,99.90
2018-07-28T08:01:58.031Z,99.90
2018-07-28T08:04:26.549Z,99.90
2018-07-28T08:06:55.069Z,99.90
2018-07-28T08:11:51.783Z,99.90
2018-07-28T08:14:20.275Z,99.90
2018-07-28T08:16:48.794Z,99.90
2018-07-28T08:19:17.367Z,99.90
2018-07-28T08:21:45.867Z,99.90
2018-07-28T08:24:14.392Z,99.90
2018-07-28T08:26:42.925Z,99.90
2018-07-28T08:29:11.430Z,99.90
2018-07-28T08:31:39.970Z,99.90
2018-07-28T08:34:08.497Z,99.90
2018-07-28T08:36:37.080Z,99.90
2018-07-28T08:39:11.007Z,99.90
2018-07-28T08:44:07.952Z,99.90
2018-07-28T08:46:36.446Z,99.90
2018-07-28T08:49:05.049Z,99.90
2018-07-28T08:51:33.480Z,99.90
2018-07-28T08:54:02.001Z,99.90
2018-07-28T08:56:30.525Z,99.90
2018-07-28T08:58:59.048Z,99.90
2018-07-28T09:01:27.571Z,99.90
2018-07-28T09:03:56.389Z,99.90
2018-07-28T09:06:24.933Z,99.90
2018-07-28T09:08:53.447Z,98.80
2018-07-28T09:13:50.195Z,94.00
2018-07-28T09:16:18.722Z,95.60
2018-07-28T09:18:47.355Z,96.70
2018-07-28T09:21:15.919Z,99.90
2018-07-28T09:23:44.487Z,99.90
2018-07-28T09:26:13.007Z,99.90
2018-07-28T09:28:41.585Z,99.90
2018-07-28T09:31:10.099Z,99.90
2018-07-28T09:33:38.641Z,99.90
2018-07-28T09:36:07.239Z,99.90
2018-07-28T09:38:35.831Z,99.90
2018-07-28T09:41:04.422Z,99.90
2018-07-28T09:43:32.986Z,99.90
2018-07-28T09:46:01.528Z,99.90
2018-07-28T09:48:30.044Z,99.90
2018-07-28T09:50:58.580Z,99.90
2018-07-28T09:53:27.155Z,99.90
2018-07-28T09:55:55.658Z,99.90
2018-07-28T09:58:24.191Z,99.90
2018-07-28T10:03:26.162Z,98.70
2018-07-28T10:05:55.166Z,99.20
2018-07-28T10:10:51.952Z,99.70
2018-07-28T10:13:20.477Z,99.90
2018-07-28T10:15:49.464Z,99.90
2018-07-28T10:18:18.020Z,99.90
2018-07-28T10:20:46.536Z,99.90
2018-07-28T10:23:15.054Z,99.90
2018-07-28T10:25:43.566Z,99.90
2018-07-28T10:30:40.424Z,99.90
2018-07-28T10:33:08.977Z,98.90
2018-07-28T10:35:37.517Z,98.90
2018-07-28T10:38:06.162Z,98.20
2018-07-28T10:40:35.938Z,97.70
2018-07-28T10:43:04.536Z,94.00
2018-07-28T10:45:33.175Z,90.20
2018-07-28T10:48:01.725Z,92.30
2018-07-28T10:50:30.277Z,94.70
2018-07-28T10:52:58.873Z,92.90
2018-07-28T10:55:27.454Z,89.80
2018-07-28T10:57:55.950Z,90.10
2018-07-28T11:00:24.669Z,85.00
2018-07-28T11:02:53.148Z,84.90
2018-07-28T11:05:21.707Z,85.10
2018-07-28T11:07:50.421Z,83.30
2018-07-28T11:10:19.035Z,90.00
2018-07-28T11:12:47.571Z,88.90
2018-07-28T11:15:16.126Z,91.70
2018-07-28T11:17:44.673Z,91.40
2018-07-28T11:20:13.205Z,91.50
2018-07-28T11:25:10.117Z,82.30
2018-07-28T11:27:38.879Z,87.40
2018-07-28T11:32:47.462Z,88.20
2018-07-28T11:35:27.449Z,84.50
2018-07-28T11:38:08.006Z,81.10
2018-07-28T11:40:47.589Z,81.60
2018-07-28T11:43:27.334Z,79.70
2018-07-28T11:45:56.071Z,79.60
2018-07-28T11:48:24.486Z,82.70
2018-07-28T11:50:53.468Z,78.30
2018-07-28T11:53:22.029Z,76.00
2018-07-28T11:55:50.683Z,74.50
2018-07-28T11:58:19.255Z,75.90
2018-07-28T12:00:47.816Z,78.80
2018-07-28T12:05:44.846Z,83.40
2018-07-28T12:08:13.707Z,83.20
2018-07-28T12:10:42.445Z,86.70
2018-07-28T12:13:11.048Z,83.50
2018-07-28T12:15:39.606Z,84.60
2018-07-28T12:18:08.168Z,85.50
2018-07-28T12:20:36.720Z,85.10
2018-07-28T12:23:05.264Z,86.80
2018-07-28T12:25:33.796Z,89.70
2018-07-28T12:28:02.390Z,90.00
2018-07-28T12:30:31.010Z,89.60
2018-07-28T12:32:59.506Z,90.50
2018-07-28T12:35:28.015Z,90.70
2018-07-28T12:37:56.577Z,91.50
2018-07-28T12:40:25.127Z,90.70
2018-07-28T12:42:53.671Z,90.10
2018-07-28T12:45:22.170Z,88.80
2018-07-28T12:47:50.745Z,87.90
2018-07-28T12:50:19.299Z,89.40
2018-07-28T12:52:47.853Z,87.30
2018-07-28T12:55:16.438Z,86.30
2018-07-28T12:57:44.918Z,86.30
2018-07-28T13:00:13.481Z,87.70
2018-07-28T13:02:42.012Z,90.00
2018-07-28T13:05:10.565Z,88.80
2018-07-28T13:07:39.145Z,87.50
2018-07-28T13:10:08.533Z,87.50
2018-07-28T13:12:37.077Z,90.20
2018-07-28T13:17:33.889Z,88.60
2018-07-28T13:20:02.420Z,90.80
2018-07-28T13:22:30.945Z,90.60
2018-07-28T13:24:59.477Z,90.60
2018-07-28T13:27:28.020Z,90.40
2018-07-28T13:29:56.591Z,91.80
2018-07-28T13:32:25.110Z,91.10
2018-07-28T13:34:53.684Z,90.10
2018-07-28T13:37:22.252Z,91.60
2018-07-28T13:39:50.771Z,92.20
2018-07-28T13:42:19.362Z,91.40
2018-07-28T13:44:47.940Z,90.70
2018-07-28T13:47:16.470Z,91.10
2018-07-28T13:49:45.004Z,90.60
2018-07-28T13:52:13.592Z,89.70
2018-07-28T13:54:42.150Z,89.20
2018-07-28T13:57:10.714Z,90.30
2018-07-28T13:59:39.222Z,90.90
2018-07-28T14:04:36.136Z,90.10
2018-07-28T14:07:04.840Z,91.20
2018-07-28T14:09:33.358Z,89.30
2018-07-28T14:12:01.950Z,90.00
2018-07-28T14:14:30.536Z,90.30
2018-07-28T14:16:59.105Z,88.20
2018-07-28T14:19:27.963Z,87.50
2018-07-28T14:21:56.563Z,86.60
2018-07-28T14:24:25.133Z,85.20
2018-07-28T14:26:53.687Z,88.10
2018-07-28T14:31:50.443Z,88.40
2018-07-28T14:34:18.984Z,87.40
2018-07-28T14:36:47.555Z,89.90
2018-07-28T14:39:16.171Z,87.90
2018-07-28T14:41:44.751Z,90.00
2018-07-28T14:44:13.353Z,88.90
2018-07-28T14:46:41.899Z,89.50
2018-07-28T14:49:10.454Z,91.20
2018-07-28T14:51:39.039Z,91.80
2018-07-28T14:54:07.622Z,94.30
2018-07-28T14:56:36.167Z,92.70
2018-07-28T14:59:04.732Z,93.10
2018-07-28T15:01:33.343Z,93.10
2018-07-28T15:04:01.848Z,94.30
2018-07-28T15:06:30.418Z,95.90
2018-07-28T15:08:58.998Z,95.70
2018-07-28T15:11:27.549Z,97.30
2018-07-28T15:13:56.163Z,97.90
2018-07-28T15:16:24.704Z,99.40
2018-07-28T15:18:53.696Z,99.30
2018-07-28T15:21:22.210Z,99.90
2018-07-28T15:26:18.964Z,99.90
2018-07-28T15:28:48.592Z,99.90
2018-07-28T15:33:45.313Z,99.90
2018-07-28T15:36:13.862Z,99.90
2018-07-28T15:38:42.504Z,99.90
2018-07-28T15:41:11.111Z,99.60
2018-07-28T15:43:39.640Z,99.90
2018-07-28T15:46:09.370Z,99.90
2018-07-28T15:48:37.913Z,99.60
2018-07-28T15:51:06.482Z,97.70
2018-07-28T15:53:35.059Z,97.00
2018-07-28T15:56:04.032Z,97.90
2018-07-28T15:58:32.747Z,96.10
2018-07-28T16:01:01.319Z,95.30
2018-07-28T16:03:29.869Z,96.80
2018-07-28T16:05:58.538Z,94.10
2018-07-28T16:08:27.080Z,93.30
2018-07-28T16:10:55.664Z,95.00
2018-07-28T16:13:24.284Z,94.70
2018-07-28T16:15:52.859Z,94.80
2018-07-28T16:18:21.370Z,95.00
2018-07-28T16:23:18.117Z,95.00
2018-07-28T16:25:46.654Z,95.70
2018-07-28T16:28:15.211Z,96.20
2018-07-28T16:30:43.721Z,96.10
2018-07-28T16:33:12.260Z,96.20
2018-07-28T16:35:40.807Z,96.80
2018-07-28T16:38:09.352Z,96.60
2018-07-28T16:40:37.872Z,95.50
2018-07-28T16:43:06.407Z,95.30
2018-07-28T16:45:34.956Z,96.00
2018-07-28T16:48:03.508Z,96.50
2018-07-28T16:50:32.057Z,98.50
2018-07-28T16:53:00.575Z,97.60
2018-07-28T16:55:29.113Z,98.30
2018-07-28T16:57:57.714Z,97.80
2018-07-28T17:00:26.294Z,97.90
2018-07-28T17:02:54.842Z,97.00
2018-07-28T17:05:23.376Z,95.40
2018-07-28T17:07:51.961Z,96.90
2018-07-28T17:10:20.496Z,97.30
2018-07-28T17:12:49.052Z,97.00
2018-07-28T17:15:17.572Z,96.70
2018-07-28T17:17:46.143Z,97.50
2018-07-28T17:20:14.640Z,97.50
2018-07-28T17:25:11.394Z,96.90
2018-07-28T17:27:39.941Z,97.80
2018-07-28T17:30:08.525Z,99.30
2018-07-28T17:32:37.098Z,99.20
2018-07-28T17:35:05.664Z,99.80
2018-07-28T17:37:34.189Z,99.90
2018-07-28T17:40:02.709Z,99.30
2018-07-28T17:42:31.270Z,98.60
2018-07-28T17:44:59.806Z,98.20
2018-07-28T17:49:56.531Z,95.80
2018-07-28T17:52:25.104Z,96.00
2018-07-28T17:54:53.649Z,96.60
2018-07-28T17:59:50.412Z,95.60
2018-07-28T18:02:18.986Z,94.90
2018-07-28T18:04:47.545Z,95.20
2018-07-28T18:07:16.033Z,97.00
2018-07-28T18:09:44.584Z,97.10
2018-07-28T18:12:13.101Z,97.40
2018-07-28T18:14:41.704Z,96.10
2018-07-28T18:17:10.228Z,96.40
2018-07-28T18:22:07.120Z,97.20
2018-07-28T18:24:35.655Z,97.70
2018-07-28T18:27:04.290Z,98.50
2018-07-28T18:29:32.766Z,99.00
2018-07-28T18:32:01.294Z,99.40
2018-07-28T18:34:29.811Z,99.40
2018-07-28T18:36:58.355Z,99.90
2018-07-28T18:39:26.920Z,99.90
2018-07-28T18:41:55.449Z,99.90
2018-07-28T18:44:24.014Z,99.90
2018-07-28T18:46:52.568Z,99.90
2018-07-28T18:49:21.111Z,99.90
2018-07-28T18:51:49.638Z,99.90
2018-07-28T18:54:18.162Z,99.90
2018-07-28T18:56:46.828Z,99.90
2018-07-28T18:59:15.322Z,99.50
2018-07-28T19:01:43.855Z,99.50
2018-07-28T19:04:12.582Z,99.50
2018-07-28T19:11:43.403Z,99.80
2018-07-28T19:14:17.170Z,99.90
2018-07-28T19:16:46.160Z,99.90
2018-07-28T19:19:16.173Z,99.90
2018-07-28T19:24:13.693Z,99.90
2018-07-28T19:26:42.303Z,99.90
2018-07-28T19:29:16.080Z,99.90
2018-07-28T19:31:44.636Z,99.90
2018-07-28T19:34:13.181Z,99.90
2018-07-28T19:36:47.007Z,99.90
2018-07-28T19:39:15.546Z,99.90
2018-07-28T19:41:49.473Z,99.90
2018-07-28T19:44:18.056Z,99.90
2018-07-28T19:49:14.730Z,99.90
2018-07-28T19:51:43.289Z,99.90
2018-07-28T19:54:11.903Z,99.90
2018-07-28T19:56:40.381Z,99.90
2018-07-28T19:59:08.898Z,99.90
2018-07-28T20:01:37.396Z,99.90
2018-07-28T20:04:06.147Z,99.90
2018-07-28T20:06:34.691Z,99.90
2018-07-28T20:09:03.549Z,99.90
2018-07-28T20:11:32.113Z,99.90
2018-07-28T20:14:00.679Z,99.90
2018-07-28T20:16:29.154Z,99.90
2018-07-28T20:18:57.704Z,99.90
2018-07-28T20:21:26.265Z,99.90
2018-07-28T20:23:54.888Z,99.90
2018-07-28T20:26:23.420Z,99.90
2018-07-28T20:28:51.921Z,99.90
2018-07-28T20:31:20.472Z,99.90
2018-07-28T20:36:17.236Z,99.90
2018-07-28T20:41:13.969Z,99.90
2018-07-28T20:43:42.548Z,99.90
2018-07-28T20:46:11.123Z,99.90
2018-07-28T20:48:39.661Z,99.90
2018-07-28T20:51:08.261Z,99.90
2018-07-28T20:53:36.783Z,99.90
2018-07-28T20:56:07.279Z,99.90
2018-07-28T20:58:36.609Z,99.90
2018-07-28T21:01:06.202Z,99.90
2018-07-28T21:03:34.900Z,99.90
2018-07-28T21:06:03.584Z,99.90
2018-07-28T21:08:32.083Z,99.90
2018-07-28T21:11:00.603Z,99.90
2018-07-28T21:13:29.111Z,99.90
2018-07-28T21:15:57.631Z,99.90
2018-07-28T21:18:27.029Z,99.90
2018-07-28T21:20:55.571Z,99.90
2018-07-28T21:23:24.096Z,99.90
2018-07-28T21:28:20.824Z,99.90
2018-07-28T21:30:49.335Z,99.90
2018-07-28T21:33:17.896Z,99.90
2018-07-28T21:35:46.486Z,99.90
2018-07-28T21:38:15.016Z,99.90
2018-07-28T21:40:43.534Z,99.90
2018-07-28T21:43:12.086Z,99.90
2018-07-28T21:45:40.623Z,99.90
2018-07-28T21:48:09.179Z,99.90
2018-07-28T21:50:37.731Z,99.90
2018-07-28T22:00:35.070Z,99.70
2018-07-28T22:03:03.619Z,99.90
2018-07-28T22:05:32.195Z,99.90
2018-07-28T22:08:00.786Z,99.90
2018-07-28T22:10:29.318Z,99.90
2018-07-28T22:12:57.874Z,99.90
2018-07-28T22:15:26.440Z,99.90
2018-07-28T22:17:55.019Z,99.90
2018-07-28T22:20:23.594Z,99.90
2018-07-28T22:22:52.110Z,99.90
2018-07-28T22:25:20.635Z,99.90
2018-07-28T22:30:17.400Z,99.90
2018-07-28T22:35:14.085Z,99.90
2018-07-28T22:37:42.638Z,99.90
2018-07-28T22:40:11.189Z,99.90
2018-07-28T22:42:48.012Z,99.90
2018-07-28T22:47:45.787Z,99.90
2018-07-28T22:52:42.797Z,99.90
2018-07-28T22:55:11.355Z,99.90
2018-07-28T23:00:08.546Z,99.90
2018-07-28T23:02:37.128Z,99.90
2018-07-28T23:07:34.025Z,99.90
2018-07-28T23:10:02.793Z,99.90
2018-07-28T23:14:59.585Z,99.90
2018-07-28T23:17:28.217Z,99.90
2018-07-28T23:19:56.723Z,99.90
2018-07-28T23:27:21.904Z,99.90
2018-07-28T23:29:50.422Z,99.90
2018-07-28T23:32:18.948Z,99.90
2018-07-28T23:42:12.013Z,99.90
2018-07-28T23:44:40.532Z,99.90
2018-07-28T23:47:09.064Z,99.90
2018-07-28T23:49:37.562Z,99.90
2018-07-28T23:52:06.226Z,99.90
2018-07-28T23:54:34.744Z,99.90
2018-07-28T23:57:03.322Z,99.90
2018-07-28T23:59:31.916Z,99.90
